Time;durP1;ratioP1;P1;durP2;ratioP2;P2;SDS_P1;SDS_P2;PMS_P1;PMS_P2;Temp;Humidity;BMP_temperature;BMP_pressure;BME280_temperature;BME280_humidity;BME280_pressure;Samples;Min_cycle;Max_cycle;Signal;HPM_P1;HPM_P2
2023/09/15 00:01:32;;;;;;;15.13;7.28;;;28.20;52.50;;;;;;5013135;28;20498;-71
2023/09/15 00:04:00;;;;;;;10.32;6.40;;;28.40;52.60;;;;;;5013131;28;20084;-71
2023/09/15 00:06:26;;;;;;;12.23;6.68;;;28.40;52.60;;;;;;5011696;28;20415;-71
2023/09/15 00:08:52;;;;;;;9.68;6.78;;;28.30;52.60;;;;;;5013038;28;20132;-71
2023/09/15 00:11:19;;;;;;;11.05;6.90;;;28.20;52.60;;;;;;4995446;28;20491;-71
2023/09/15 00:13:48;;;;;;;9.18;6.75;;;28.30;52.60;;;;;;5011889;28;20067;-70
2023/09/15 00:16:14;;;;;;;10.30;6.40;;;28.30;52.70;;;;;;5012996;28;20041;-71
2023/09/15 00:18:41;;;;;;;9.25;6.53;;;28.30;52.80;;;;;;5012848;28;20539;-71
2023/09/15 00:21:09;;;;;;;10.68;6.97;;;28.20;52.70;;;;;;5012489;28;20125;-72
2023/09/15 00:23:38;;;;;;;10.73;7.45;;;28.30;52.80;;;;;;5011483;28;20033;-71
2023/09/15 00:26:04;;;;;;;13.32;7.72;;;28.30;52.80;;;;;;5012928;28;20041;-71
2023/09/15 00:28:30;;;;;;;9.05;7.00;;;28.20;52.80;;;;;;5012916;28;20030;-71
2023/09/15 00:30:59;;;;;;;11.50;7.28;;;28.30;52.80;;;;;;5012869;28;20398;-71
2023/09/15 00:33:26;;;;;;;9.32;7.70;;;28.30;52.80;;;;;;5012454;28;20127;-71
2023/09/15 00:35:52;;;;;;;12.25;8.30;;;28.40;52.80;;;;;;5011098;28;20041;-71
2023/09/15 00:38:18;;;;;;;12.40;8.10;;;28.30;52.80;;;;;;5012327;28;20022;-71
2023/09/15 00:40:44;;;;;;;9.65;7.38;;;28.50;52.80;;;;;;5012430;28;20069;-71
2023/09/15 00:43:10;;;;;;;12.25;8.20;;;28.20;52.80;;;;;;5012322;28;20042;-71
2023/09/15 00:45:36;;;;;;;10.73;7.50;;;28.30;52.70;;;;;;5012404;28;20038;-71
2023/09/15 00:48:04;;;;;;;9.10;7.18;;;28.30;52.70;;;;;;5012283;28;20034;-71
2023/09/15 00:50:32;;;;;;;9.77;7.63;;;28.20;52.70;;;;;;5012130;28;20033;-71
2023/09/15 00:53:04;;;;;;;8.30;7.38;;;28.20;52.70;;;;;;5012129;28;20030;-71
2023/09/15 00:55:32;;;;;;;;;;;28.10;52.80;;;;;;5012604;28;20090;-71
2023/09/15 00:58:03;;;;;;;8.80;6.50;;;28.20;52.80;;;;;;5012111;28;19909;-71
2023/09/15 01:00:30;;;;;;;11.45;7.82;;;28.20;52.80;;;;;;5012072;28;20038;-71
2023/09/15 01:02:56;;;;;;;13.55;7.07;;;28.10;52.80;;;;;;5012330;28;20037;-71
2023/09/15 01:05:24;;;;;;;11.98;7.80;;;28.20;52.80;;;;;;5010414;28;20034;-71
2023/09/15 01:07:52;;;;;;;11.82;7.43;;;28.30;52.80;;;;;;5009835;28;20401;-71
2023/09/15 01:10:20;;;;;;;10.63;7.88;;;28.10;52.80;;;;;;5009409;28;20397;-71
2023/09/15 01:12:51;;;;;;;14.65;8.15;;;28.20;52.80;;;;;;5011744;28;20037;-71
2023/09/15 01:15:17;;;;;;;8.15;7.32;;;28.20;52.90;;;;;;5011392;28;20112;-71
2023/09/15 01:18:21;;;;;;;11.52;8.18;;;28.10;52.90;;;;;;5011534;28;20034;-71
2023/09/15 01:20:59;;;;;;;11.27;8.45;;;28.00;52.90;;;;;;5011603;28;20085;-71
2023/09/15 01:23:36;;;;;;;11.40;7.85;;;28.20;52.90;;;;;;4992646;28;20070;-71
2023/09/15 01:26:28;;;;;;;12.05;8.13;;;28.10;52.90;;;;;;4990764;28;20060;-71
2023/09/15 01:28:57;;;;;;;11.95;8.18;;;28.10;52.90;;;;;;4992064;28;20030;-71
2023/09/15 01:31:24;;;;;;;8.93;7.60;;;28.20;53.00;;;;;;4990715;28;20401;-71
2023/09/15 01:33:51;;;;;;;13.68;8.20;;;28.00;53.00;;;;;;4992143;28;20034;-71
2023/09/15 01:36:17;;;;;;;15.70;8.80;;;28.00;53.10;;;;;;5005164;28;20026;-71
2023/09/15 01:38:43;;;;;;;12.15;9.15;;;28.10;53.20;;;;;;5011723;28;20441;-72
2023/09/15 01:41:09;;;;;;;12.95;8.50;;;28.00;53.20;;;;;;5011612;28;20038;-71
2023/09/15 01:43:35;;;;;;;13.98;9.15;;;28.10;53.30;;;;;;5010221;28;20034;-71
2023/09/15 01:46:01;;;;;;;11.73;8.95;;;28.00;53.30;;;;;;5010293;28;20030;-71
2023/09/15 01:48:28;;;;;;;15.10;9.45;;;28.20;53.30;;;;;;5009576;28;20018;-71
2023/09/15 01:50:56;;;;;;;12.15;9.10;;;28.10;53.30;;;;;;5009797;28;20117;-71
2023/09/15 01:53:23;;;;;;;14.35;9.35;;;28.20;53.30;;;;;;5010224;28;20038;-71
2023/09/15 01:55:49;;;;;;;12.95;9.82;;;28.20;53.30;;;;;;5010013;28;20049;-71
2023/09/15 01:58:15;;;;;;;12.70;8.80;;;28.20;53.40;;;;;;5008803;28;20042;-71
2023/09/15 02:00:42;;;;;;;16.30;9.43;;;28.30;53.40;;;;;;4992226;28;20078;-71
2023/09/15 02:03:08;;;;;;;16.70;10.20;;;28.30;53.30;;;;;;4969546;28;20046;-71
2023/09/15 02:05:34;;;;;;;14.32;9.30;;;28.20;53.40;;;;;;4969697;28;20047;-71
2023/09/15 02:08:00;;;;;;;17.15;9.45;;;28.20;53.40;;;;;;4953797;28;20093;-71
2023/09/15 02:10:28;;;;;;;14.00;9.52;;;28.20;53.30;;;;;;4937486;28;20055;-71
2023/09/15 02:12:54;;;;;;;14.38;9.57;;;28.20;53.30;;;;;;4970004;28;20045;-71
2023/09/15 02:15:21;;;;;;;12.55;9.02;;;28.30;53.30;;;;;;4969629;28;20045;-72
2023/09/15 02:17:51;;;;;;;12.07;9.10;;;28.20;53.20;;;;;;4969633;28;20509;-71
2023/09/15 02:20:19;;;;;;;12.70;9.63;;;28.30;53.20;;;;;;4969583;28;20082;-71
2023/09/15 02:22:46;;;;;;;10.20;8.15;;;28.40;53.20;;;;;;4953593;28;20061;-71
2023/09/15 02:25:12;;;;;;;11.35;9.32;;;28.40;53.20;;;;;;4953874;28;20043;-71
2023/09/15 02:27:38;;;;;;;12.80;8.88;;;28.30;53.20;;;;;;4953632;28;20046;-71
2023/09/15 02:30:05;;;;;;;11.45;9.18;;;28.40;53.20;;;;;;4969739;28;20045;-71
2023/09/15 02:32:32;;;;;;;10.25;8.77;;;28.40;53.10;;;;;;4953503;28;20046;-71
2023/09/15 02:34:58;;;;;;;13.57;9.70;;;28.50;53.10;;;;;;4987428;28;20050;-71
2023/09/15 02:37:24;;;;;;;15.32;8.80;;;28.50;53.10;;;;;;5011140;28;20244;-71
2023/09/15 02:39:51;;;;;;;11.20;8.43;;;28.50;53.10;;;;;;5009802;28;20069;-71
2023/09/15 02:42:17;;;;;;;10.48;8.25;;;28.50;53.10;;;;;;5009530;28;20128;-71
2023/09/15 02:44:43;;;;;;;10.88;8.82;;;28.50;53.10;;;;;;4993243;28;20042;-71
2023/09/15 02:47:10;;;;;;;9.10;8.20;;;28.50;53.00;;;;;;5009794;28;20034;-71
2023/09/15 02:49:36;;;;;;;17.63;9.35;;;28.60;53.00;;;;;;5010973;28;20049;-71
2023/09/15 02:52:05;;;;;;;11.55;8.82;;;28.60;53.00;;;;;;5009704;28;20397;-71
2023/09/15 02:54:31;;;;;;;12.73;8.20;;;28.40;52.90;;;;;;5009706;28;20041;-71
2023/09/15 02:56:57;;;;;;;10.15;8.23;;;28.30;52.90;;;;;;5011274;28;20441;-71
2023/09/15 02:59:23;;;;;;;9.98;7.97;;;28.50;52.90;;;;;;5011406;28;20124;-71
2023/09/15 03:01:50;;;;;;;10.32;7.93;;;28.50;52.90;;;;;;5014489;28;20125;-71
2023/09/15 03:04:19;;;;;;;10.80;8.13;;;28.40;52.90;;;;;;4997023;28;20050;-71
2023/09/15 03:06:47;;;;;;;11.27;7.80;;;28.50;52.80;;;;;;5012964;28;20030;-71
2023/09/15 03:09:13;;;;;;;11.05;8.30;;;28.50;52.80;;;;;;4996697;28;20449;-71
2023/09/15 03:11:39;;;;;;;14.30;8.13;;;28.40;52.90;;;;;;5030833;28;20041;-71
2023/09/15 03:14:05;;;;;;;9.60;7.60;;;28.40;53.00;;;;;;5029052;28;20045;-71
2023/09/15 03:16:31;;;;;;;10.88;7.25;;;28.50;52.90;;;;;;5031298;28;20045;-70
2023/09/15 03:18:58;;;;;;;8.77;7.22;;;28.50;52.90;;;;;;5014859;28;20571;-71
2023/09/15 03:21:24;;;;;;;8.60;7.18;;;28.40;53.00;;;;;;4995738;28;20128;-72
2023/09/15 03:23:50;;;;;;;6.20;5.07;;;28.50;52.90;;;;;;4995196;28;20056;-72
2023/09/15 03:26:16;;;;;;;7.35;5.07;;;28.40;52.90;;;;;;4978861;28;20049;-71
2023/09/15 03:28:46;;;;;;;4.63;4.22;;;28.50;52.90;;;;;;4994913;28;20540;-71
2023/09/15 03:31:12;;;;;;;4.63;4.22;;;28.40;52.90;;;;;;4994919;28;20057;-71
2023/09/15 03:33:38;;;;;;;4.50;4.10;;;28.50;52.80;;;;;;4994761;28;20037;-71
2023/09/15 03:36:04;;;;;;;11.15;6.43;;;28.50;52.80;;;;;;5011263;28;20042;-71
2023/09/15 03:38:30;;;;;;;8.75;6.80;;;28.40;52.80;;;;;;5007526;28;20064;-71
2023/09/15 03:40:57;;;;;;;8.43;6.53;;;28.40;52.80;;;;;;5014414;28;20129;-71
2023/09/15 03:43:25;;;;;;;7.60;6.70;;;28.40;52.80;;;;;;5011954;28;20085;-71
2023/09/15 03:45:52;;;;;;;9.48;7.15;;;28.40;52.80;;;;;;5013451;28;20061;-71
2023/09/15 03:48:18;;;;;;;9.25;6.97;;;28.40;52.80;;;;;;5012266;28;20042;-70
2023/09/15 03:50:44;;;;;;;7.88;6.60;;;28.50;52.80;;;;;;4995895;28;20494;-71
2023/09/15 03:53:10;;;;;;;8.52;6.10;;;28.40;52.80;;;;;;4995501;28;20487;-71
2023/09/15 03:55:36;;;;;;;6.25;5.38;;;28.50;52.80;;;;;;5012031;28;20026;-71
2023/09/15 03:58:04;;;;;;;7.88;6.55;;;28.30;52.90;;;;;;5011932;28;20041;-71
2023/09/15 04:00:30;;;;;;;6.57;5.00;;;28.50;52.90;;;;;;5012016;28;20141;-71
2023/09/15 04:02:57;;;;;;;7.25;6.38;;;28.30;52.90;;;;;;5011618;28;20117;-71
2023/09/15 04:05:23;;;;;;;8.15;6.30;;;28.50;52.90;;;;;;5012862;28;20041;-71
2023/09/15 04:07:49;;;;;;;10.85;5.85;;;28.40;52.90;;;;;;5011571;28;20034;-71
2023/09/15 04:10:15;;;;;;;6.90;5.03;;;28.30;52.90;;;;;;5011520;28;20065;-73
2023/09/15 04:12:42;;;;;;;7.15;6.32;;;28.50;53.00;;;;;;5010888;28;20381;-73
2023/09/15 04:15:11;;;;;;;5.75;5.18;;;28.30;53.00;;;;;;5011625;28;20123;-72
2023/09/15 04:17:38;;;;;;;6.47;5.07;;;28.50;53.00;;;;;;5013618;28;20057;-71
2023/09/15 04:20:09;;;;;;;7.70;5.43;;;28.40;53.00;;;;;;5030183;28;20433;-70
2023/09/15 04:22:39;;;;;;;4.70;4.00;;;28.30;53.00;;;;;;5013380;28;20144;-70
2023/09/15 04:25:07;;;;;;;7.07;5.57;;;28.40;54.60;;;;;;5013865;28;20038;-71
2023/09/15 04:27:34;;;;;;;9.25;5.43;;;28.80;55.50;;;;;;4997374;28;20049;-72
2023/09/15 04:30:02;;;;;;;6.90;5.07;;;29.00;57.90;;;;;;5013538;28;20045;-74
2023/09/15 04:32:33;;;;;;;5.72;5.10;;;29.40;58.60;;;;;;4997033;28;20096;-72
2023/09/15 04:34:59;;;;;;;7.00;5.68;;;29.30;60.50;;;;;;5013605;28;20053;-72
2023/09/15 04:37:25;;;;;;;6.72;5.50;;;29.30;56.50;;;;;;5013230;28;20072;-71
2023/09/15 04:39:51;;;;;;;8.95;5.43;;;29.10;55.70;;;;;;5030035;28;20429;-70
2023/09/15 04:42:17;;;;;;;7.55;4.90;;;29.00;55.40;;;;;;5013266;28;20026;-70
2023/09/15 04:44:43;;;;;;;7.57;5.50;;;29.00;55.20;;;;;;4990349;28;20058;-70
2023/09/15 04:47:12;;;;;;;9.13;4.85;;;29.00;55.20;;;;;;4974133;28;20922;-71
2023/09/15 04:49:40;;;;;;;7.90;5.78;;;28.90;54.80;;;;;;4958066;28;20080;-70
2023/09/15 04:52:06;;;;;;;5.80;5.00;;;29.00;55.40;;;;;;4974152;28;20065;-70
2023/09/15 04:54:33;;;;;;;7.20;5.70;;;28.80;55.00;;;;;;4973731;28;20073;-70
2023/09/15 04:56:59;;;;;;;4.50;4.10;;;28.90;55.40;;;;;;4974081;28;20464;-70
2023/09/15 04:59:25;;;;;;;5.68;4.60;;;28.80;55.80;;;;;;4957710;28;20100;-70
2023/09/15 05:01:51;;;;;;;5.90;4.85;;;28.90;55.90;;;;;;4990120;28;20070;-71
2023/09/15 05:04:20;;;;;;;5.00;4.50;;;28.80;55.60;;;;;;4973811;28;20048;-72
2023/09/15 05:06:47;;;;;;;8.32;4.55;;;28.70;55.60;;;;;;4973878;28;20046;-69
2023/09/15 05:09:18;;;;;;;6.38;4.03;;;28.80;55.80;;;;;;4957771;28;20056;-68
2023/09/15 05:11:44;;;;;;;8.48;4.63;;;28.70;54.30;;;;;;4973589;28;20489;-68
2023/09/15 05:14:10;;;;;;;4.68;4.10;;;28.70;53.10;;;;;;4989199;28;20051;-69
2023/09/15 05:16:37;;;;;;;6.63;4.68;;;28.70;53.10;;;;;;4976065;28;20467;-69
2023/09/15 05:19:03;;;;;;;5.22;4.07;;;28.70;53.40;;;;;;4989634;28;20128;-69
2023/09/15 05:21:29;;;;;;;5.68;4.78;;;28.60;53.50;;;;;;4973215;28;20138;-68
2023/09/15 05:23:55;;;;;;;7.28;4.75;;;28.80;53.50;;;;;;4989614;28;20047;-69
2023/09/15 05:26:21;;;;;;;8.27;5.05;;;28.80;53.60;;;;;;4989495;28;20723;-69
2023/09/15 05:28:47;;;;;;;7.75;4.93;;;28.80;53.70;;;;;;4986787;28;20046;-69
2023/09/15 05:31:14;;;;;;;6.00;5.28;;;28.70;53.60;;;;;;4973312;28;20053;-68
2023/09/15 05:33:40;;;;;;;7.55;6.65;;;28.80;53.90;;;;;;4993387;28;20594;-69
2023/09/15 05:36:06;;;;;;;6.95;4.95;;;28.80;53.90;;;;;;4989299;28;20133;-70
2023/09/15 05:38:32;;;;;;;8.25;5.93;;;28.80;54.30;;;;;;4986201;28;20126;-69
2023/09/15 05:40:59;;;;;;;16.27;5.80;;;28.90;54.70;;;;;;4986400;28;20055;-68
2023/09/15 05:43:25;;;;;;;9.57;5.38;;;28.90;54.40;;;;;;4985916;28;20496;-71
2023/09/15 05:45:51;;;;;;;6.18;5.40;;;28.80;56.10;;;;;;4970030;28;20047;-68
2023/09/15 05:48:22;;;;;;;7.47;5.85;;;28.80;54.70;;;;;;4970091;28;20062;-70
2023/09/15 05:50:50;;;;;;;8.27;5.25;;;29.00;54.90;;;;;;4969923;28;20591;-72
2023/09/15 05:53:16;;;;;;;8.90;6.07;;;28.90;54.50;;;;;;4969661;28;20039;-70
2023/09/15 05:55:42;;;;;;;6.20;5.38;;;29.00;55.00;;;;;;4969945;28;20589;-69
2023/09/15 05:58:08;;;;;;;7.70;5.30;;;28.90;55.70;;;;;;4953758;28;20051;-69
2023/09/15 06:00:34;;;;;;;10.07;7.85;;;28.90;55.40;;;;;;4970082;28;20062;-70
2023/09/15 06:03:00;;;;;;;9.02;6.07;;;28.90;53.50;;;;;;4969766;28;20121;-71
2023/09/15 06:05:26;;;;;;;12.32;5.30;;;29.00;56.20;;;;;;4970136;28;20442;-71
2023/09/15 06:07:52;;;;;;;5.90;5.30;;;29.00;58.70;;;;;;5001600;28;20516;-72
2023/09/15 06:10:18;;;;;;;10.32;6.47;;;29.00;57.50;;;;;;5011096;28;20080;-73
2023/09/15 06:12:44;;;;;;;6.20;5.60;;;29.00;59.40;;;;;;5010072;28;20117;-73
2023/09/15 06:15:11;;;;;;;8.52;6.28;;;29.00;58.10;;;;;;5011153;28;20129;-72
2023/09/15 06:17:37;;;;;;;10.57;6.82;;;28.90;55.60;;;;;;5009624;28;20038;-72
2023/09/15 06:20:04;;;;;;;8.80;6.63;;;29.00;55.50;;;;;;4999499;28;20041;-72
2023/09/15 06:22:30;;;;;;;8.07;5.88;;;29.00;55.00;;;;;;4998701;28;20046;-72
2023/09/15 06:24:56;;;;;;;11.68;6.20;;;28.90;54.20;;;;;;5011527;28;20045;-71
2023/09/15 06:27:22;;;;;;;8.43;6.32;;;28.90;54.30;;;;;;5011190;28;20030;-74
2023/09/15 06:29:48;;;;;;;10.27;6.55;;;29.00;54.80;;;;;;5011503;28;20088;-73
2023/09/15 06:32:14;;;;;;;10.32;6.13;;;28.90;54.20;;;;;;5011135;28;20046;-73
2023/09/15 06:34:40;;;;;;;7.88;4.45;;;29.00;54.80;;;;;;5010349;28;20034;-73
2023/09/15 06:37:08;;;;;;;7.55;6.63;;;29.00;54.90;;;;;;4995354;28;20121;-73
2023/09/15 06:39:36;;;;;;;11.13;7.15;;;28.80;54.30;;;;;;4993954;28;20038;-72
2023/09/15 06:42:07;;;;;;;11.30;5.57;;;28.90;54.20;;;;;;4995053;28;20045;-72
2023/09/15 06:44:35;;;;;;;11.93;7.13;;;28.80;54.10;;;;;;4993863;28;20070;-73
2023/09/15 06:47:01;;;;;;;11.82;7.55;;;28.90;54.00;;;;;;4995280;28;20117;-72
2023/09/15 06:49:27;;;;;;;7.35;5.55;;;28.90;53.90;;;;;;4995382;28;20363;-73
2023/09/15 06:51:54;;;;;;;10.02;6.15;;;29.00;54.30;;;;;;4996629;28;20040;-73
2023/09/15 06:54:23;;;;;;;9.52;7.65;;;28.90;53.70;;;;;;5014376;28;20561;-75
2023/09/15 06:56:50;;;;;;;11.80;5.53;;;28.90;53.60;;;;;;5014174;28;20049;-73
2023/09/15 06:59:17;;;;;;;6.22;4.93;;;28.90;53.60;;;;;;5014456;28;20037;-73
2023/09/15 07:01:43;;;;;;;5.68;5.07;;;28.90;53.60;;;;;;5014247;28;20500;-73
2023/09/15 07:04:12;;;;;;;7.28;5.68;;;28.80;53.60;;;;;;5014049;28;20105;-72
2023/09/15 07:06:39;;;;;;;8.43;6.55;;;28.90;53.60;;;;;;5013069;28;20069;-73
2023/09/15 07:09:05;;;;;;;10.35;7.72;;;28.80;53.60;;;;;;5014196;28;20433;-73
2023/09/15 07:11:31;;;;;;;8.93;6.80;;;28.90;53.40;;;;;;5014250;28;20029;-74
2023/09/15 07:13:57;;;;;;;7.20;6.28;;;28.70;53.50;;;;;;5013914;28;20038;-73
2023/09/15 07:16:23;;;;;;;11.85;7.75;;;28.80;53.50;;;;;;5008996;28;20041;-71
2023/09/15 07:18:49;;;;;;;12.00;7.70;;;28.90;53.50;;;;;;5012253;28;20033;-72
2023/09/15 07:21:15;;;;;;;9.82;7.53;;;28.70;53.60;;;;;;5012811;28;20054;-72
2023/09/15 07:23:41;;;;;;;5.75;5.15;;;28.70;53.80;;;;;;5013577;28;20555;-73
2023/09/15 07:26:07;;;;;;;7.50;6.35;;;28.80;53.70;;;;;;5013998;28;20034;-73
2023/09/15 07:28:33;;;;;;;11.75;7.72;;;28.70;53.60;;;;;;5014004;28;20556;-72
2023/09/15 07:31:06;;;;;;;5.93;5.32;;;28.80;53.70;;;;;;5014066;28;20026;-73
2023/09/15 07:33:33;;;;;;;11.27;8.40;;;28.70;53.90;;;;;;5013914;28;20482;-74
2023/09/15 07:36:05;;;;;;;9.40;7.47;;;28.70;53.60;;;;;;5000778;28;20045;-73
2023/09/15 07:38:31;;;;;;;10.10;7.55;;;28.60;53.90;;;;;;4994674;28;20745;-73
2023/09/15 07:40:58;;;;;;;7.20;5.55;;;28.80;54.00;;;;;;4993203;28;20034;-73
2023/09/15 07:43:24;;;;;;;5.05;4.47;;;28.70;54.00;;;;;;5010447;28;20033;-73
2023/09/15 07:45:50;;;;;;;7.50;5.65;;;28.60;54.20;;;;;;5012718;28;20059;-72
2023/09/15 07:48:17;;;;;;;5.95;5.30;;;28.70;54.20;;;;;;4995426;28;20041;-73
2023/09/15 07:50:43;;;;;;;6.13;4.93;;;28.70;54.20;;;;;;5013374;28;20033;-73
2023/09/15 07:53:10;;;;;;;6.82;5.45;;;28.80;54.10;;;;;;5013586;28;20085;-73
2023/09/15 07:55:36;;;;;;;8.15;6.65;;;28.70;53.90;;;;;;5012138;28;20065;-73
2023/09/15 07:58:03;;;;;;;6.97;5.95;;;28.70;53.90;;;;;;5013273;28;20042;-72
2023/09/15 08:00:29;;;;;;;7.20;5.45;;;28.70;53.70;;;;;;5013307;28;20034;-73
2023/09/15 08:02:55;;;;;;;5.82;5.28;;;28.60;53.80;;;;;;5013102;28;20030;-73
2023/09/15 08:05:24;;;;;;;6.60;5.78;;;28.70;54.10;;;;;;5013136;28;20557;-74
2023/09/15 08:07:50;;;;;;;8.55;5.75;;;28.70;53.90;;;;;;5013151;28;20034;-72
2023/09/15 08:10:22;;;;;;;9.93;5.80;;;28.60;54.00;;;;;;5013246;28;20038;-74
2023/09/15 08:12:52;;;;;;;7.15;5.18;;;28.60;54.40;;;;;;5012787;28;20105;-73
2023/09/15 08:15:20;;;;;;;7.82;5.68;;;28.70;54.60;;;;;;5012664;28;20497;-74
2023/09/15 08:17:46;;;;;;;7.50;5.60;;;28.60;54.40;;;;;;5012677;28;20042;-74
2023/09/15 08:20:13;;;;;;;6.93;6.15;;;28.50;54.20;;;;;;5012941;28;20034;-72
2023/09/15 08:22:40;;;;;;;9.27;5.68;;;28.50;54.20;;;;;;5012213;28;20037;-73
2023/09/15 08:25:09;;;;;;;9.35;7.13;;;28.60;55.10;;;;;;5013213;28;20088;-73
2023/09/15 08:27:35;;;;;;;16.15;6.65;;;28.50;56.60;;;;;;5030319;28;20069;-74
2023/09/15 08:30:01;;;;;;;12.70;7.68;;;28.60;56.40;;;;;;5030109;28;20041;-74
2023/09/15 08:32:27;;;;;;;8.50;7.22;;;28.80;57.00;;;;;;5030060;28;20045;-73
2023/09/15 08:34:57;;;;;;;9.00;7.07;;;28.80;58.40;;;;;;5012992;28;20047;-75
2023/09/15 08:37:23;;;;;;;9.10;6.75;;;29.00;57.30;;;;;;5029813;28;20061;-73
2023/09/15 08:39:49;;;;;;;10.55;7.03;;;29.00;55.60;;;;;;5029579;28;20041;-72
2023/09/15 08:42:23;;;;;;;7.38;5.82;;;29.00;55.30;;;;;;5029862;28;20038;-74
2023/09/15 08:44:50;;;;;;;8.18;5.55;;;29.00;55.00;;;;;;5029518;28;20045;-74
2023/09/15 08:47:19;;;;;;;9.48;6.72;;;29.00;54.80;;;;;;5029660;28;20390;-75
2023/09/15 08:49:45;;;;;;;8.98;5.95;;;29.00;54.90;;;;;;5029686;28;20083;-75
2023/09/15 08:52:13;;;;;;;8.93;6.60;;;28.90;54.40;;;;;;5029985;28;20534;-71
2023/09/15 08:54:40;;;;;;;9.45;6.57;;;28.90;54.20;;;;;;5029442;28;20502;-74
2023/09/15 08:57:07;;;;;;;9.98;6.60;;;29.00;57.00;;;;;;5029207;28;20393;-74
2023/09/15 08:59:33;;;;;;;7.40;6.35;;;29.10;58.60;;;;;;5013928;28;20141;-75
2023/09/15 09:01:59;;;;;;;67.20;45.65;;;29.40;58.20;;;;;;5011158;28;20034;-72
2023/09/15 09:04:26;;;;;;;14.20;11.98;;;29.40;55.60;;;;;;5012152;28;20033;-73
2023/09/15 09:06:52;;;;;;;8.95;7.57;;;29.40;54.40;;;;;;5010673;28;20034;-75
2023/09/15 09:09:18;;;;;;;10.45;7.03;;;29.40;54.20;;;;;;5012261;28;20151;-75
2023/09/15 09:11:45;;;;;;;8.30;7.45;;;29.40;54.20;;;;;;4995124;28;20034;-75
2023/09/15 09:14:12;;;;;;;11.18;9.30;;;29.20;54.20;;;;;;5010712;28;20088;-73
2023/09/15 09:16:42;;;;;;;11.55;7.15;;;29.20;54.20;;;;;;5012060;28;20044;-74
2023/09/15 09:19:10;;;;;;;10.15;6.88;;;29.20;54.10;;;;;;5011985;28;20474;-74
2023/09/15 09:21:36;;;;;;;10.32;7.07;;;29.30;54.10;;;;;;5011998;28;20054;-74
2023/09/15 09:24:03;;;;;;;8.15;6.88;;;29.20;54.10;;;;;;5005088;28;20026;-75
2023/09/15 09:26:29;;;;;;;9.43;7.65;;;29.20;53.90;;;;;;4993816;28;20030;-73
2023/09/15 09:28:57;;;;;;;12.18;6.75;;;29.20;53.80;;;;;;4992796;28;20030;-74
2023/09/15 09:31:27;;;;;;;7.38;6.65;;;29.20;53.60;;;;;;4991325;28;20031;-75
2023/09/15 09:33:54;;;;;;;8.60;6.40;;;29.10;53.70;;;;;;5004909;28;20034;-76
2023/09/15 09:36:21;;;;;;;6.78;6.05;;;29.50;54.10;;;;;;5012231;28;20034;-76
2023/09/15 09:38:49;;;;;;;11.20;6.47;;;29.20;54.10;;;;;;5011727;28;20092;-73
2023/09/15 09:41:18;;;;;;;8.43;6.90;;;29.10;54.20;;;;;;5011833;28;20033;-76
2023/09/15 09:43:51;;;;;;;10.63;8.20;;;29.10;54.50;;;;;;5011725;28;20616;-73
2023/09/15 09:46:21;;;;;;;9.23;7.28;;;29.30;54.50;;;;;;5012007;28;20040;-74
2023/09/15 09:48:49;;;;;;;10.57;7.03;;;29.10;54.30;;;;;;5011757;28;20033;-75
2023/09/15 09:51:17;;;;;;;8.50;7.38;;;29.10;54.10;;;;;;5011784;28;20373;-75
2023/09/15 09:53:43;;;;;;;8.02;7.10;;;29.00;54.10;;;;;;5011409;28;20456;-73
2023/09/15 09:56:09;;;;;;;9.95;7.55;;;29.10;54.10;;;;;;5011359;28;20088;-73
2023/09/15 09:58:36;;;;;;;8.95;7.72;;;29.10;54.10;;;;;;5011791;28;20033;-74
2023/09/15 10:01:11;;;;;;;10.20;8.07;;;29.10;54.10;;;;;;5011909;28;20034;-75
2023/09/15 10:03:37;;;;;;;11.05;7.95;;;29.10;54.10;;;;;;5011871;28;20058;-76
2023/09/15 10:06:04;;;;;;;9.48;7.03;;;29.00;54.00;;;;;;5011542;28;20045;-75
2023/09/15 10:08:31;;;;;;;10.73;7.35;;;29.00;54.10;;;;;;5011285;28;20061;-74
2023/09/15 10:10:57;;;;;;;8.93;6.88;;;29.00;54.00;;;;;;5014459;28;20109;-73
2023/09/15 10:13:24;;;;;;;10.52;7.03;;;28.90;53.90;;;;;;5004275;28;20038;-73
2023/09/15 10:15:51;;;;;;;10.38;7.70;;;28.90;55.60;;;;;;4995865;28;20042;-74
2023/09/15 10:18:20;;;;;;;11.85;7.53;;;29.20;56.20;;;;;;4995953;28;20042;-74
2023/09/15 10:20:49;;;;;;;11.25;7.38;;;29.00;56.30;;;;;;5009551;28;20078;-75
2023/09/15 10:23:16;;;;;;;13.70;9.57;;;29.40;59.30;;;;;;4995942;28;20039;-76
2023/09/15 10:25:46;;;;;;;8.10;6.93;;;29.50;55.70;;;;;;4995559;28;20504;-76
2023/09/15 10:28:14;;;;;;;29.05;10.48;;;29.70;58.30;;;;;;5015614;28;20042;-78
2023/09/15 10:30:40;;;;;;;11.20;9.00;;;30.30;67.00;;;;;;5015301;28;20187;-74
2023/09/15 10:33:10;;;;;;;12.18;9.77;;;30.60;64.20;;;;;;5015025;28;20057;-74
2023/09/15 10:35:40;;;;;;;10.60;9.40;;;30.50;57.80;;;;;;5014786;28;20026;-75
2023/09/15 10:38:07;;;;;;;11.40;8.80;;;30.10;56.90;;;;;;5013347;28;20497;-74
2023/09/15 10:40:47;;;;;;;11.40;8.65;;;30.20;56.00;;;;;;5014986;28;20037;-74
2023/09/15 10:43:18;;;;;;;9.30;8.20;;;29.90;54.80;;;;;;5015018;28;20058;-74
2023/09/15 10:46:02;;;;;;;9.32;7.53;;;29.90;54.50;;;;;;5014548;28;20037;-75
2023/09/15 10:48:43;;;;;;;9.73;7.95;;;29.90;54.20;;;;;;5013560;28;20561;-75
2023/09/15 10:51:11;;;;;;;21.50;13.77;;;29.70;53.80;;;;;;5014724;28;20060;-75
2023/09/15 10:53:44;;;;;;;11.55;9.35;;;29.80;55.90;;;;;;5014757;28;20025;-73
2023/09/15 10:56:10;;;;;;;10.65;8.80;;;29.90;56.20;;;;;;5014455;28;20570;-73
2023/09/15 10:58:37;;;;;;;12.18;8.27;;;29.80;57.00;;;;;;5014318;28;20425;-72
2023/09/15 11:01:03;;;;;;;10.73;9.07;;;29.90;58.40;;;;;;5013063;28;20100;-73
2023/09/15 11:03:30;;;;;;;10.35;8.63;;;30.00;59.60;;;;;;5013455;28;20038;-75
2023/09/15 11:05:56;;;;;;;11.13;8.65;;;29.90;55.80;;;;;;5014269;28;20041;-74
2023/09/15 11:08:24;;;;;;;10.15;8.05;;;29.90;54.90;;;;;;5014293;28;20112;-74
2023/09/15 11:11:07;;;;;;;10.73;7.03;;;29.80;54.10;;;;;;5014242;28;20033;-74
2023/09/15 11:13:33;;;;;;;15.25;10.57;;;29.80;53.80;;;;;;5014195;28;20034;-75
2023/09/15 11:16:00;;;;;;;12.15;8.18;;;29.80;53.60;;;;;;5014632;28;20400;-74
2023/09/15 11:18:27;;;;;;;10.75;8.70;;;29.70;53.40;;;;;;5014236;28;20040;-75
2023/09/15 11:20:55;;;;;;;9.82;7.57;;;29.80;53.30;;;;;;5014068;28;20076;-75
2023/09/15 11:23:24;;;;;;;9.18;8.18;;;29.70;53.20;;;;;;5014477;28;20045;-75
2023/09/15 11:26:19;;;;;;;15.32;8.82;;;29.70;53.60;;;;;;5014011;28;20029;-75
2023/09/15 11:28:45;;;;;;;13.40;8.90;;;29.60;55.90;;;;;;4949454;29;20067;-74
2023/09/15 11:31:12;;;;;;;10.32;7.50;;;29.60;54.50;;;;;;4932760;29;20087;-75
2023/09/15 11:33:41;;;;;;;10.20;7.97;;;29.60;54.20;;;;;;4933061;29;20152;-74
2023/09/15 11:36:07;;;;;;;10.98;8.80;;;29.40;54.20;;;;;;4933541;29;20502;-76
2023/09/15 11:38:33;;;;;;;9.57;6.90;;;29.60;54.10;;;;;;4933062;29;20123;-75
2023/09/15 11:40:59;;;;;;;9.02;8.13;;;29.40;54.10;;;;;;4933172;29;20400;-75
2023/09/15 11:43:25;;;;;;;9.25;7.90;;;29.40;54.00;;;;;;4933126;29;20035;-75
2023/09/15 11:45:52;;;;;;;9.90;8.02;;;29.40;53.90;;;;;;4933271;29;20051;-76
2023/09/15 11:48:21;;;;;;;10.15;8.07;;;29.50;53.80;;;;;;4933217;29;20050;-75
2023/09/15 11:50:47;;;;;;;9.05;7.53;;;29.40;53.70;;;;;;4933093;29;20507;-75
2023/09/15 11:53:23;;;;;;;8.90;7.93;;;29.40;53.70;;;;;;4933202;29;20046;-76
2023/09/15 11:55:52;;;;;;;9.60;8.15;;;29.40;53.60;;;;;;4933327;29;20189;-76
2023/09/15 11:58:18;;;;;;;9.68;7.82;;;29.40;53.60;;;;;;4933454;29;20044;-74
2023/09/15 12:00:45;;;;;;;9.25;8.10;;;29.30;53.60;;;;;;4933255;29;20565;-75
2023/09/15 12:03:11;;;;;;;9.55;7.97;;;29.40;53.60;;;;;;4933242;29;20040;-75
2023/09/15 12:05:37;;;;;;;11.98;8.48;;;29.30;53.60;;;;;;4979094;28;20390;-74
2023/09/15 12:08:03;;;;;;;10.32;7.60;;;29.40;53.60;;;;;;5012264;28;20026;-75
2023/09/15 12:10:29;;;;;;;13.70;8.65;;;29.40;54.00;;;;;;5013078;28;20103;-75
2023/09/15 12:12:59;;;;;;;8.70;7.82;;;29.20;53.90;;;;;;5030500;28;20042;-74
2023/09/15 12:15:27;;;;;;;10.77;8.10;;;29.20;54.00;;;;;;5029955;28;20092;-73
2023/09/15 12:17:55;;;;;;;10.32;7.88;;;29.20;54.00;;;;;;5030344;28;20057;-76
2023/09/15 12:20:25;;;;;;;8.75;7.60;;;29.10;54.00;;;;;;5030011;28;20044;-74
2023/09/15 12:22:54;;;;;;;10.32;7.95;;;29.10;54.10;;;;;;5030259;28;20187;-73
2023/09/15 12:25:20;;;;;;;10.32;8.70;;;29.20;54.20;;;;;;5030099;28;20052;-75
2023/09/15 12:27:47;;;;;;;10.75;8.25;;;29.10;54.40;;;;;;4996490;28;20049;-73
2023/09/15 12:30:14;;;;;;;9.38;7.70;;;29.00;54.70;;;;;;5030296;28;20100;-74
2023/09/15 12:32:43;;;;;;;8.75;6.95;;;29.10;54.80;;;;;;5029304;28;20560;-73
2023/09/15 12:35:11;;;;;;;9.15;7.60;;;29.20;54.80;;;;;;5030091;28;20049;-72
2023/09/15 12:37:44;;;;;;;7.72;7.03;;;29.00;55.00;;;;;;5030031;28;20048;-74
2023/09/15 12:40:14;;;;;;;9.13;7.07;;;29.00;55.30;;;;;;5030209;28;20049;-74
2023/09/15 12:42:43;;;;;;;12.18;7.78;;;29.00;55.50;;;;;;5013456;28;20037;-75
2023/09/15 12:45:10;;;;;;;9.80;7.30;;;29.20;55.60;;;;;;5010147;28;20712;-72